CST,Max TemperatureF,Mean TemperatureF,Min TemperatureF,Max Dew PointF,MeanDew PointF,Min DewpointF,Max Humidity, Mean Humidity, Min Humidity, Max Sea Level PressureIn, Mean Sea Level PressureIn, Min Sea Level PressureIn, Max VisibilityMiles, Mean VisibilityMiles, Min VisibilityMiles, Max Wind SpeedMPH, Mean Wind SpeedMPH, Max Gust SpeedMPH,PrecipitationIn, CloudCover, Events, WindDirDegrees
2012-1-1,50,36,23,27,22,18,86,60,30,30.64,30.53,30.37,10,10,10,13,7,,0.00,0,,281
2012-1-2,51,36,21,28,23,19,93,69,30,30.74,30.61,30.43,10,10,10,16,7,23,0.00,0,,229
2012-1-3,62,46,30,27,25,23,80,53,26,30.41,30.21,30.05,10,10,10,16,8,22,0.00,0,,229
2012-1-4,59,46,33,28,27,23,75,51,25,30.48,30.35,30.19,10,10,10,15,10,21,0.00,0,,333
2012-1-5,68,49,30,28,25,19,80,52,16,30.32,30.15,29.94,10,10,10,14,9,18,0.00,0,,228
2012-1-6,59,44,30,32,28,23,80,53,33,30.08,29.87,29.79,10,10,10,24,13,32,0.00,0,,317
2012-1-7,51,37,23,27,22,18,100,62,26,30.16,30.09,29.99,10,10,10,12,7,17,0.00,0,,189
2012-1-8,46,36,26,25,23,21,86,65,37,30.22,30.15,30.07,10,10,10,16,6,21,0.00,0,,39
2012-1-9,50,36,21,28,24,19,100,70,32,30.29,30.24,30.14,10,10,10,8,4,,0.00,0,,299
2012-1-10,59,41,23,30,25,19,93,67,34,30.11,29.99,29.82,10,10,10,12,7,,0.00,0,,262
2012-1-11,41,34,26,32,28,25,93,81,65,30.06,29.83,29.69,10,10,10,31,10,40,0.00,4,Rain,333
2012-1-12,44,30,17,10,6,0,73,42,18,30.25,30.19,30.09,10,10,10,23,10,37,0.00,0,,300
2012-1-13,55,36,17,16,11,5,79,44,14,30.17,30.12,30.06,10,10,10,14,9,18,0.00,0,,234
2012-1-14,59,40,21,18,12,9,63,35,16,30.30,30.20,30.12,10,10,10,13,8,,0.00,0,,202
2012-1-15,71,52,33,25,14,10,56,27,9,30.13,29.92,29.76,10,10,10,23,11,34,0.00,0,,228
2012-1-16,71,58,46,36,31,27,57,36,23,29.83,29.76,29.65,10,10,10,37,19,50,0.00,0,,237
2012-1-17,37,29,21,25,15,7,86,58,30,30.34,30.24,29.91,10,10,10,21,11,32,0.00,0,,24
2012-1-18,62,40,19,23,17,9,68,51,19,30.26,30.09,29.90,10,10,10,15,7,18,0.00,0,,226
2012-1-19,64,48,33,27,23,19,60,40,18,29.93,29.83,29.76,10,10,10,20,9,28,0.00,0,,187
2012-1-20,64,45,26,32,28,25,93,60,24,29.90,29.73,29.63,10,10,10,17,7,23,0.00,0,,14
2012-1-21,64,40,17,28,21,12,86,54,26,30.12,29.91,29.56,10,10,10,30,11,38,0.00,0,,199
2012-1-22,60,51,42,41,27,21,87,44,22,29.81,29.51,29.38,10,10,4,32,18,47,0.00,2,Rain,257
2012-1-23,59,42,24,30,24,19,93,59,22,30.07,29.97,29.86,10,10,10,22,10,29,0.00,0,,198
2012-1-24,60,46,33,37,31,27,87,59,34,30.05,29.92,29.88,10,10,10,22,7,28,0.00,1,,176
2012-1-25,51,42,32,32,28,19,93,67,28,30.18,30.10,29.97,10,10,10,22,13,31,0.00,3,,1
2012-1-26,59,42,26,32,25,21,93,55,23,30.13,30.04,29.98,10,10,10,18,9,24,0.00,0,,327
2012-1-27,55,48,41,30,28,21,61,46,35,30.14,29.88,29.74,10,10,10,28,17,36,0.00,2,,302
2012-1-28,51,34,17,19,15,9,80,48,22,30.48,30.40,30.30,10,10,10,16,8,23,0.00,1,,252
2012-1-29,62,46,30,19,16,9,64,39,12,30.30,30.23,30.16,10,10,10,20,11,22,0.00,0,,230
2012-1-30,71,50,30,23,18,12,64,39,13,30.12,29.95,29.80,10,10,10,25,9,30,0.00,0,,231
2012-1-31,62,50,37,21,18,14,49,28,15,30.05,29.96,29.82,10,10,10,21,13,28,0.00,0,,329